Time;durP1;ratioP1;P1;durP2;ratioP2;P2;SDS_P1;SDS_P2;PMS_P1;PMS_P2;Temp;Humidity;BMP_temperature;BMP_pressure;BME280_temperature;BME280_humidity;BME280_pressure;Samples;Min_cycle;Max_cycle;Signal;HPM_P1;HPM_P2
2021/12/17 14:43:25;;;;;;;9.17;2.67;;;;;;;17.23;48.37;102594.16;10245766;27;42896;-71
2021/12/17 14:48:20;;;;;;;11.52;3.80;;;;;;;17.43;47.76;102593.78;10235717;27;66271;-70
2021/12/17 15:03:44;;;;;;;13.40;3.58;;;;;;;17.74;47.37;102587.94;10173119;27;67134;-67
2021/12/17 15:08:36;;;;;;;8.82;3.55;;;;;;;17.73;47.25;102591.75;10200118;27;65716;-68
2021/12/17 15:13:30;;;;;;;15.05;3.70;;;;;;;17.73;47.03;102586.25;10201542;27;66322;-66
2021/12/17 15:18:22;;;;;;;21.33;3.45;;;;;;;17.91;47.23;102577.03;10199036;27;65508;-70
2021/12/17 15:23:14;;;;;;;22.88;3.72;;;;;;;17.93;47.50;102579.53;10200228;27;66383;-72
2021/12/17 15:28:06;;;;;;;15.15;3.58;;;;;;;18.01;47.35;102571.75;10200164;27;65635;-71
2021/12/17 15:33:00;;;;;;;7.43;2.92;;;;;;;18.07;46.94;102569.94;10201097;27;66355;-71
2021/12/17 15:37:52;;;;;;;4.82;2.20;;;;;;;18.09;47.02;102576.84;10196421;27;65581;-71
2021/12/17 15:42:45;;;;;;;5.40;2.75;;;;;;;18.14;46.81;102576.13;10209947;27;66343;-70
2021/12/17 15:47:37;;;;;;;5.78;2.58;;;;;;;18.20;46.62;102578.72;10212904;27;64768;-71
2021/12/17 15:52:31;;;;;;;5.15;2.42;;;;;;;18.22;46.57;102567.50;10197394;27;66397;-70
2021/12/17 15:57:23;;;;;;;4.70;2.38;;;;;;;18.21;46.68;102574.91;10192424;27;66574;-72
2021/12/17 16:02:16;;;;;;;5.47;2.40;;;;;;;18.24;46.69;102568.06;10198473;27;65636;-71
2021/12/17 16:07:09;;;;;;;5.50;1.90;;;;;;;18.30;46.57;102571.78;10186225;27;63864;-70
2021/12/17 16:12:09;;;;;;;4.30;2.08;;;;;;;18.32;46.35;102575.06;10196853;27;65521;-72
2021/12/17 16:22:16;;;;;;;6.68;2.00;;;;;;;18.30;46.61;102572.59;10142999;27;66199;-73
2021/12/17 16:27:10;;;;;;;6.60;2.55;;;;;;;18.28;46.51;102590.41;10201159;27;66390;-70
2021/12/17 16:32:02;;;;;;;6.80;2.17;;;;;;;18.31;46.63;102590.72;10192443;27;66326;-69
2021/12/17 16:36:54;;;;;;;5.03;2.42;;;;;;;18.37;46.37;102588.94;10133342;27;65622;-67
2021/12/17 16:41:46;;;;;;;4.55;2.15;;;;;;;18.12;46.68;102592.84;10104189;28;66451;-67
2021/12/17 16:47:02;;;;;;;8.30;2.25;;;;;;;18.17;46.36;102595.69;10090370;28;65589;-71
2021/12/17 16:51:54;;;;;;;2.70;1.98;;;;;;;18.20;46.38;102588.88;10104189;28;66388;-77
2021/12/17 16:56:47;;;;;;;9.70;2.70;;;;;;;18.29;46.24;102583.81;10089242;27;65527;-78
2021/12/17 17:01:41;;;;;;;4.18;2.05;;;;;;;18.38;46.22;102582.31;10090782;28;65771;-77
2021/12/17 17:06:33;;;;;;;4.47;2.03;;;;;;;18.34;46.19;102587.50;10128653;28;66308;-77
2021/12/17 17:11:29;;;;;;;4.95;2.10;;;;;;;18.40;46.12;102578.28;10109972;28;65634;-74
2021/12/17 17:16:21;;;;;;;11.13;2.10;;;;;;;18.42;46.06;102597.25;10094808;28;66523;-75
2021/12/17 17:21:15;;;;;;;7.10;2.08;;;;;;;18.45;46.12;102596.78;10091598;28;65616;-75
2021/12/17 17:26:08;;;;;;;7.35;2.20;;;;;;;18.45;46.28;102591.28;10089420;28;65504;-75
2021/12/17 17:31:00;;;;;;;5.60;2.25;;;;;;;18.46;46.27;102593.75;10098559;28;65563;-75
2021/12/17 17:35:52;;;;;;;7.35;2.55;;;;;;;18.45;46.14;102591.28;10107906;28;66332;-75
2021/12/17 17:40:46;;;;;;;8.75;2.33;;;;;;;18.51;46.08;102580.13;10117542;28;66405;-78
2021/12/17 17:45:39;;;;;;;7.53;2.30;;;;;;;18.54;45.99;102579.63;10098085;28;66562;-76
2021/12/17 17:50:32;;;;;;;4.72;2.20;;;;;;;18.53;45.85;102571.63;10098647;28;65860;-77
2021/12/17 17:55:24;;;;;;;7.38;2.47;;;;;;;18.53;46.13;102596.34;10118478;28;65034;-76
2021/12/17 18:00:18;;;;;;;6.40;2.28;;;;;;;18.52;45.89;102586.47;10125468;28;65528;-75
2021/12/17 18:05:12;;;;;;;5.15;2.30;;;;;;;18.60;46.01;102594.31;10120595;28;66415;-75
2021/12/17 18:10:05;;;;;;;7.55;2.20;;;;;;;18.57;45.87;102590.16;10097737;28;64855;-76
2021/12/17 18:14:57;;;;;;;11.48;2.97;;;;;;;18.56;46.02;102579.41;10091325;28;66400;-71
2021/12/17 18:19:52;;;;;;;8.15;2.65;;;;;;;18.45;46.15;102567.38;10118684;28;66420;-73
2021/12/17 18:24:44;;;;;;;5.45;2.78;;;;;;;18.39;46.35;102586.75;10103279;28;65565;-72
2021/12/17 18:29:36;;;;;;;8.23;2.72;;;;;;;18.41;46.09;102568.94;10114041;28;65519;-71
2021/12/17 18:34:28;;;;;;;4.70;2.42;;;;;;;18.33;46.14;102580.34;10111800;28;65595;-71
2021/12/17 18:39:22;;;;;;;5.05;2.53;;;;;;;18.38;46.06;102579.59;10105666;28;66359;-73
2021/12/17 18:44:15;;;;;;;8.80;2.67;;;;;;;18.37;46.20;102586.19;10094734;28;66302;-78
2021/12/17 18:49:07;;;;;;;4.93;2.40;;;;;;;18.53;45.70;102588.09;10101921;28;65535;-76
2021/12/17 18:53:59;;;;;;;9.82;2.70;;;;;;;18.50;45.89;102605.09;10114960;28;65443;-75
2021/12/17 18:58:53;;;;;;;9.73;2.63;;;;;;;18.54;46.00;102585.13;10099042;28;66531;-74
2021/12/17 19:03:46;;;;;;;4.90;2.33;;;;;;;18.55;45.93;102584.03;10123752;28;65785;-75
2021/12/17 19:08:40;;;;;;;6.68;2.13;;;;;;;18.60;45.81;102581.41;10102450;28;66465;-74
2021/12/17 19:13:32;;;;;;;7.70;2.40;;;;;;;18.59;45.78;102581.69;10094326;28;65541;-75
2021/12/17 19:18:33;;;;;;;4.20;2.40;;;;;;;18.60;45.86;102580.56;10102007;27;66371;-74
2021/12/17 19:23:26;;;;;;;3.10;2.22;;;;;;;18.61;45.95;102580.31;10054762;28;66422;-75
2021/12/17 19:28:19;;;;;;;8.68;2.67;;;;;;;18.74;45.53;102581.09;10054186;27;65757;-74
2021/12/17 19:33:12;;;;;;;6.63;2.58;;;;;;;18.74;45.40;102589.34;10087989;28;65062;-72
2021/12/17 19:38:07;;;;;;;9.48;2.45;;;;;;;18.72;45.55;102588.75;10099886;28;66848;-74
2021/12/17 19:43:01;;;;;;;4.25;2.60;;;;;;;18.77;45.64;102586.09;10112628;28;66070;-73
2021/12/17 19:48:11;;;;;;;4.47;2.42;;;;;;;18.77;45.40;102589.69;10095067;28;65886;-73
2021/12/17 19:53:06;;;;;;;4.57;3.05;;;;;;;18.75;45.34;102596.53;10110884;28;66148;-72
2021/12/17 19:57:59;;;;;;;4.43;2.13;;;;;;;18.76;45.40;102596.25;10124596;28;66507;-74
2021/12/17 20:02:55;;;;;;;4.05;2.53;;;;;;;18.77;45.15;102599.84;10096078;28;66386;-74
2021/12/17 20:07:48;;;;;;;3.60;2.60;;;;;;;18.80;44.85;102602.09;10091494;28;68324;-72
2021/12/17 20:12:44;;;;;;;4.50;2.22;;;;;;;18.83;44.88;102599.66;10121834;28;66663;-75
2021/12/17 20:17:37;;;;;;;5.32;2.55;;;;;;;18.81;44.86;102601.03;10105584;28;66537;-73
2021/12/17 20:22:30;;;;;;;4.43;2.80;;;;;;;18.81;44.90;102598.28;10107517;28;66999;-73
2021/12/17 20:27:24;;;;;;;3.75;2.50;;;;;;;18.82;44.98;102611.75;10098448;28;65860;-73
2021/12/17 20:32:19;;;;;;;4.35;2.80;;;;;;;18.85;44.65;102621.41;10105865;28;65713;-74
2021/12/17 20:37:15;;;;;;;4.78;2.65;;;;;;;18.82;44.83;102609.00;10121644;28;65955;-73
2021/12/17 20:42:15;;;;;;;4.28;2.60;;;;;;;18.83;44.65;102618.06;10105159;28;66064;-73
2021/12/17 20:47:08;;;;;;;4.95;3.20;;;;;;;18.83;44.89;102618.91;10120782;28;66251;-73
2021/12/17 20:52:03;;;;;;;2.50;2.22;;;;;;;18.84;44.72;102620.56;10112205;28;66309;-75
2021/12/17 20:56:56;;;;;;;4.75;2.80;;;;;;;18.81;44.84;102620.25;10128089;28;66542;-70
2021/12/17 21:01:50;;;;;;;4.70;2.50;;;;;;;18.82;44.62;102614.50;10093019;28;65606;-72
2021/12/17 21:06:43;;;;;;;5.15;2.53;;;;;;;18.83;44.50;102618.06;10101686;28;65525;-73
2021/12/17 21:11:48;;;;;;;4.10;2.40;;;;;;;18.82;44.49;102619.19;10107529;28;67091;-72
2021/12/17 21:16:42;;;;;;;4.32;2.78;;;;;;;18.83;44.56;102623.56;10111202;28;66408;-74
2021/12/17 21:21:36;;;;;;;3.13;2.22;;;;;;;18.82;44.46;102619.19;10109651;28;66389;-74
2021/12/17 21:26:30;;;;;;;4.00;2.75;;;;;;;18.84;44.38;102611.50;10108150;28;65716;-78
2021/12/17 21:31:24;;;;;;;4.07;3.08;;;;;;;18.79;44.49;102606.75;10105890;28;66313;-72
2021/12/17 21:36:18;;;;;;;3.53;2.55;;;;;;;18.81;44.39;102623.00;10103787;28;65899;-75
2021/12/17 21:41:11;;;;;;;3.92;2.88;;;;;;;18.82;44.13;102616.44;10110887;28;65301;-74
2021/12/17 21:46:04;;;;;;;3.30;2.40;;;;;;;18.80;44.18;102624.91;10121099;28;66517;-75
2021/12/17 21:50:59;;;;;;;4.68;2.58;;;;;;;18.80;44.22;102618.59;10106729;28;66566;-72
2021/12/17 21:55:52;;;;;;;4.35;2.90;;;;;;;18.82;43.90;102619.19;10109563;28;65674;-72
2021/12/17 22:00:44;;;;;;;4.35;3.08;;;;;;;18.84;43.80;102620.56;10089716;28;66816;-73
2021/12/17 22:05:36;;;;;;;5.55;3.17;;;;;;;18.87;43.77;102622.00;10122801;28;66489;-74
2021/12/17 22:10:30;;;;;;;4.18;2.83;;;;;;;18.80;43.80;102621.34;10096142;28;65575;-75
2021/12/17 22:15:24;;;;;;;5.35;2.95;;;;;;;18.81;43.60;102617.50;10122722;28;66375;-76
2021/12/17 22:20:28;;;;;;;4.85;2.72;;;;;;;18.79;43.63;102617.75;10101514;28;65498;-75
2021/12/17 22:25:20;;;;;;;5.15;2.90;;;;;;;18.83;43.85;102623.56;10048979;28;65443;-76
2021/12/17 22:30:14;;;;;;;3.50;2.78;;;;;;;18.79;43.69;102615.00;10055730;28;66373;-76
2021/12/17 22:35:08;;;;;;;4.80;2.72;;;;;;;18.83;43.58;102618.06;10086051;28;65429;-73
2021/12/17 22:40:02;;;;;;;3.85;3.00;;;;;;;18.71;43.55;102620.06;10088927;28;65783;-70
2021/12/17 22:44:54;;;;;;;3.45;2.47;;;;;;;18.76;43.67;102620.16;10115378;28;65457;-77
2021/12/17 22:49:48;;;;;;;4.40;2.70;;;;;;;18.79;43.67;102604.00;10099620;28;63999;-72
2021/12/17 22:54:40;;;;;;;5.47;2.97;;;;;;;18.79;43.61;102604.00;10089979;28;65698;-73
2021/12/17 22:59:32;;;;;;;3.85;2.50;;;;;;;18.76;43.48;102610.00;10118543;28;66301;-69
2021/12/17 23:04:27;;;;;;;6.25;2.83;;;;;;;18.80;43.91;102604.84;10106020;28;65625;-74
2021/12/17 23:09:24;;;;;;;6.75;2.88;;;;;;;18.80;43.91;102611.19;10105644;28;66606;-71
2021/12/17 23:14:17;;;;;;;4.32;2.90;;;;;;;18.67;43.50;102619.75;10119339;28;64382;-71
2021/12/17 23:19:09;;;;;;;5.43;2.60;;;;;;;18.65;43.38;102619.16;10107369;28;65613;-70
2021/12/17 23:24:01;;;;;;;4.28;2.97;;;;;;;18.64;43.35;102624.88;10133117;28;66254;-70
2021/12/17 23:28:56;;;;;;;3.08;2.65;;;;;;;18.63;43.53;102614.97;10109059;28;65927;-70
2021/12/17 23:34:01;;;;;;;3.30;2.58;;;;;;;18.63;43.37;102613.06;10092379;28;67085;-70
2021/12/17 23:38:53;;;;;;;3.67;2.60;;;;;;;18.63;43.17;102609.47;10109916;28;65096;-73
2021/12/17 23:43:45;;;;;;;3.78;2.35;;;;;;;18.62;43.29;102614.13;10131548;28;65467;-70
2021/12/17 23:48:39;;;;;;;4.47;2.42;;;;;;;18.61;43.39;102602.31;10132409;28;66092;-68
2021/12/17 23:53:31;;;;;;;2.67;2.25;;;;;;;18.72;43.11;102599.75;10132853;28;65348;-75
2021/12/17 23:58:23;;;;;;;3.97;2.22;;;;;;;18.73;43.01;102590.44;10115195;28;65314;-79
